• Join FlightAware (Why Join?)
  • Login
  • US Flag 
06:58PM EDT


 

Airport Tracker/Info


-or-


 

Live Flight TrackerFlight Track Log ✈ UAL5908 ✈ 21-Apr-2013 ✈ KIAD - KSDF

Flight Track Log - Related Links

Times and Time Zones

All times are in EDT time to prevent confusion due to time zone crossing. See the UAL5908 flight status page for this flight to view local times or setup timezone preferences in your user account.

Time Position Orientation Groundspeed Altitude Reporting Facility
EDT Latitude Longitude Course Direction KTS MPH feet Rate Location/Type
05:02PM 38.9333 -77.5500 288° West 196 226 2,600  Level Potomac TRACON
05:03PM 38.9167 -77.6333 256° West 254 292 4,700 2,400 Climbing Potomac TRACON
05:05PM 38.8833 -77.7167 243° Southwest 260 299 7,700 2,520 Climbing Potomac TRACON
05:06PM 38.8667 -77.8000 256° West 271 312 10,100 1,440 Climbing Potomac TRACON
05:07PM 38.8594 -77.9242 266° West 295 339 10,700 1,080 Climbing Washington Center
05:08PM 38.8194 -78.0608 288° West  Level FlightAware Approximate
05:08PM 38.8572 -78.0389 269° West 309 356 12,400  Level Washington Center
05:09PM 38.8547 -78.1586 269° West 327 376 14,100 1,560 Climbing Washington Center
05:10PM 38.8542 -78.2786 270° West 332 382 15,600 1,440 Climbing Washington Center
05:11PM 38.8536 -78.4014 270° West 337 388 17,000 1,200 Climbing Washington Center
05:12PM 38.8506 -78.5264 268° West 348 400 18,100 840 Climbing Washington Center
05:13PM 38.8494 -78.6544 269° West 353 406 18,700 720 Climbing Washington Center
05:14PM 38.8481 -78.7822 269° West 353 406 19,600 1,080 Climbing Washington Center
05:15PM 38.8467 -78.9128 269° West 365 420 20,900 1,320 Climbing Washington Center
05:16PM 38.8450 -79.0433 269° West 365 420 22,300 1,440 Climbing Washington Center
05:17PM 38.8436 -79.1686 269° West 365 420 23,800 1,500 Climbing Washington Center
05:18PM 38.8256 -79.2850 259° West 359 413 25,400 1,380 Climbing Washington Center
05:19PM 38.8072 -79.4011 259° West 348 400 26,600 1,140 Climbing Washington Center
05:20PM 38.7847 -79.5172 256° West 343 395 27,700 1,200 Climbing Washington Center
05:21PM 38.7664 -79.6333 259° West 343 395 29,000 1,140 Climbing Washington Center
05:22PM 38.7436 -79.7494 256° West 338 389 30,000 480 Climbing Washington Center
05:23PM 38.7228 -79.8681 257° West 333 383 30,000  Level Washington Center
05:24PM 38.6972 -79.9969 256° West 354 407 30,000  Level Washington Center
05:25PM 38.6581 -80.1919 256° West 389 448 30,000  Level Indianapolis Center
05:26PM 38.6322 -80.3294 257° West 396 456 30,000  Level Indianapolis Center
05:27PM 38.6056 -80.4683 256° West 398 458 30,000  Level Indianapolis Center
05:28PM 38.5747 -80.6344 257° West 400 460 30,000  Level Indianapolis Center
05:29PM 38.5475 -80.7733 256° West 402 463 30,000  Level Indianapolis Center
05:30PM 38.5214 -80.9122 257° West 401 461 30,000  Level Indianapolis Center
05:31PM 38.4939 -81.0522 256° West 403 464 30,000  Level Indianapolis Center
05:32PM 38.4653 -81.1894 255° West 399 459 30,000  Level Indianapolis Center
05:33PM 38.4383 -81.3294 256° West 402 463 30,000  Level Indianapolis Center
05:34PM 38.4100 -81.4700 256° West 405 466 30,000  Level Indianapolis Center
05:35PM 38.3833 -81.6089 256° West 399 459 30,000  Level Indianapolis Center
05:37PM 38.3556 -81.7478 256° West 400 460 30,000 120 Level Indianapolis Center
05:38PM 38.3175 -81.8822 250° West 402 463 30,300 480 Climbing Indianapolis Center
05:39PM 38.2753 -82.0397 251° West 392 451 31,000 720 Climbing Indianapolis Center
05:40PM 38.2369 -82.1689 249° West 389 448 31,900 480 Climbing Indianapolis Center
05:41PM 38.2019 -82.2981 251° West 386 444 32,000  Climbing Indianapolis Center
05:42PM 38.1650 -82.4269 250° West 388 447 32,000  Level Indianapolis Center
05:43PM 38.1239 -82.5650 249° West 387 445 32,000  Level Indianapolis Center
05:44PM 38.0864 -82.6956 250° West 392 451 32,000  Level Indianapolis Center
05:45PM 38.0494 -82.8267 250° West 394 453 32,000  Level Indianapolis Center
05:46PM 38.0111 -82.9578 250° West 397 457 32,000  Level Indianapolis Center
05:47PM 37.9725 -83.0883 249° West 397 457 32,000 -240 Level Indianapolis Center
05:48PM 37.9275 -83.2419 250° West 400 460 31,600 -780 Descending Indianapolis Center
05:49PM 37.8894 -83.3697 249° West 391 450 30,500 -1,140 Descending Indianapolis Center
05:50PM 37.8514 -83.4997 250° West 393 452 29,300 -1,200 Descending Indianapolis Center
05:51PM 37.8111 -83.6328 249° West 405 466 28,100 -1,200 Descending Indianapolis Center
05:52PM 37.7708 -83.7681 249° West 412 474 26,900 -1,260 Descending Indianapolis Center
05:53PM 37.7233 -83.9253 249° West 412 474 25,600 -1,140 Descending Indianapolis Center
05:54PM 37.6825 -84.0600 249° West 412 474 24,400 -1,500 Descending Indianapolis Center
05:55PM 37.6389 -84.2128 250° West 399 459 22,300 -2,400 Descending Indianapolis Center
05:56PM 37.6386 -84.3544 270° West 403 464 19,400 -2,760 Descending Indianapolis Center
05:57PM 37.6425 -84.5144 272° West 394 453 16,600 -2,640 Descending Indianapolis Center
05:58PM 37.6450 -84.6458 271° West 376 433 14,100 -2,100 Descending Indianapolis Center
05:59PM 37.6494 -84.7725 273° West 364 419 12,300 -1,500 Descending Indianapolis Center
06:00PM 37.6525 -84.9000 272° West 365 420 11,100 -960 Descending Indianapolis Center
06:01PM 37.6969 -85.0103 297° West 361 415 10,400 -540 Descending Indianapolis Center
06:03PM 37.7631 -85.1050 311° West 358 412 10,000 -240 Descending Indianapolis Center
06:04PM 37.8347 -85.2058 312° West 353 406 10,000 -60 Level Indianapolis Center
06:05PM 37.8933 -85.2853 313° West 309 356 9,900 -660 Descending Indianapolis Center
06:06PM 37.9631 -85.3808 313° West 277 319 8,500 -1,200 Descending FAA TRACON SMA TRACON (SMA)
06:06PM 37.9789 -85.4033 312° West 276 318 8,100 -1,080 Descending FAA TRACON SMA TRACON (SMA)
06:07PM 37.9986 -85.4300 313° West 272 313 7,800 -1,080 Descending FAA TRACON SMA TRACON (SMA)
06:07PM 38.0139 -85.4519 311° West 269 310 7,400 -1,140 Descending FAA TRACON SMA TRACON (SMA)
06:07PM 38.0294 -85.4733 313° West 268 308 7,100 -1,080 Descending FAA TRACON SMA TRACON (SMA)
06:08PM 38.0486 -85.5000 312° West 266 306 6,700 -1,080 Descending FAA TRACON SMA TRACON (SMA)
06:08PM 38.0636 -85.5214 312° West 264 304 6,400 -900 Descending FAA TRACON SMA TRACON (SMA)
06:08PM 38.0786 -85.5428 312° West 264 304 6,100 -780 Descending FAA TRACON SMA TRACON (SMA)
06:09PM 38.0978 -85.5700 312° West 269 310 5,900 -360 Descending FAA TRACON SMA TRACON (SMA)
06:09PM 38.1144 -85.5903 316° Northwest 269 310 5,900 -300 Level FAA TRACON SMA TRACON (SMA)
06:09PM 38.1347 -85.6008 338° Northwest 265 305 5,700 -900 Descending FAA TRACON SMA TRACON (SMA)
06:10PM 38.1611 -85.6125 341° North 259 298 5,300 -1,080 Descending FAA TRACON SMA TRACON (SMA)
06:10PM 38.1819 -85.6217 341° North 258 297 5,000 -1,080 Descending FAA TRACON SMA TRACON (SMA)
06:10PM 38.2075 -85.6339 339° North 254 292 4,600 -1,080 Descending FAA TRACON SMA TRACON (SMA)
06:10PM 38.2281 -85.6436 340° North 256 295 4,300 -900 Descending FAA TRACON SMA TRACON (SMA)
06:11PM 38.2486 -85.6533 340° North 256 295 4,000 -600 Descending FAA TRACON SMA TRACON (SMA)
06:11PM 38.2739 -85.6650 340° North 251 289 3,900 -180 Descending FAA TRACON SMA TRACON (SMA)
06:12PM 38.2936 -85.6742 340° North 250 288 3,900  Level FAA TRACON SMA TRACON (SMA)
06:12PM 38.3139 -85.6836 340° North 250 288 3,900  Level FAA TRACON SMA TRACON (SMA)
06:12PM 38.3392 -85.6956 340° North 250 288 3,900  Level FAA TRACON SMA TRACON (SMA)
06:13PM 38.3575 -85.7075 333° Northwest 248 285 3,900 -480 Level FAA TRACON SMA TRACON (SMA)
06:13PM 38.3667 -85.7297 298° West 248 285 3,600 -1,080 Descending FAA TRACON SMA TRACON (SMA)
06:13PM 38.3611 -85.7600 257° West 236 272 3,200 -1,080 Descending FAA TRACON SMA TRACON (SMA)
06:14PM 38.3481 -85.7767 225° Southwest 229 264 2,900 -900 Descending FAA TRACON SMA TRACON (SMA)
06:14PM 38.3300 -85.7792 186° South 224 258 2,600 -780 Descending FAA TRACON SMA TRACON (SMA)
06:14PM 38.3094 -85.7706 162° South 208 239 2,400 -300 Descending FAA TRACON SMA TRACON (SMA)
06:15PM 38.2922 -85.7669 171° South 201 231 2,400 -360 Level FAA TRACON SMA TRACON (SMA)
06:15PM 38.2764 -85.7619 166° South 195 224 2,200 -780 Descending FAA TRACON SMA TRACON (SMA)
06:15PM 38.2592 -85.7558 164° South 172 198 1,900 -840 Descending FAA TRACON SMA TRACON (SMA)
06:16PM 38.2439 -85.7508 166° South 148 170 1,600 -600 Descending FAA TRACON SMA TRACON (SMA)
06:16PM 38.2325 -85.7469 165° South 139 160 1,500 -660 Descending FAA TRACON SMA TRACON (SMA)
06:16PM 38.2211 -85.7431 165° South 136 157 1,200 -840 Descending FAA TRACON SMA TRACON (SMA)
06:17PM 38.2094 -85.7389 164° South 139 160 1,000 -780 Descending FAA TRACON SMA TRACON (SMA)
06:17PM 38.1956 -85.7342 165° South 138 159 700 -660 Descending FAA TRACON SMA TRACON (SMA)
06:17PM 38.1897 -85.7325 167° South 137 158 600 -360 Descending FAA TRACON SMA TRACON (SMA)